sensor_id;sensor_type;location;lat;lon;timestamp;P1;durP1;ratioP1;P2;durP2;ratioP2
3601;SDS011;1815;50.950;6.920;2024-01-15T00:01:50;22.27;;;11.50;;
3601;SDS011;1815;50.950;6.920;2024-01-15T00:04:16;20.50;;;12.40;;
3601;SDS011;1815;50.950;6.920;2024-01-15T00:06:42;24.27;;;13.00;;
3601;SDS011;1815;50.950;6.920;2024-01-15T00:09:07;23.90;;;13.20;;
3601;SDS011;1815;50.950;6.920;2024-01-15T00:11:33;17.77;;;11.50;;
3601;SDS011;1815;50.950;6.920;2024-01-15T00:13:59;19.33;;;12.00;;
3601;SDS011;1815;50.950;6.920;2024-01-15T00:16:24;16.67;;;11.10;;
3601;SDS011;1815;50.950;6.920;2024-01-15T00:18:50;17.87;;;11.57;;
3601;SDS011;1815;50.950;6.920;2024-01-15T00:21:16;19.33;;;11.37;;
3601;SDS011;1815;50.950;6.920;2024-01-15T00:23:44;20.43;;;13.13;;
3601;SDS011;1815;50.950;6.920;2024-01-15T00:26:11;19.65;;;12.20;;
3601;SDS011;1815;50.950;6.920;2024-01-15T00:28:37;27.33;;;13.63;;
3601;SDS011;1815;50.950;6.920;2024-01-15T00:31:04;20.35;;;13.05;;
3601;SDS011;1815;50.950;6.920;2024-01-15T00:33:30;16.42;;;10.38;;
3601;SDS011;1815;50.950;6.920;2024-01-15T00:35:56;23.02;;;13.57;;
3601;SDS011;1815;50.950;6.920;2024-01-15T00:38:22;19.73;;;12.40;;
3601;SDS011;1815;50.950;6.920;2024-01-15T00:40:48;23.60;;;13.83;;
3601;SDS011;1815;50.950;6.920;2024-01-15T00:43:13;23.07;;;12.43;;
3601;SDS011;1815;50.950;6.920;2024-01-15T00:45:40;23.38;;;14.75;;
3601;SDS011;1815;50.950;6.920;2024-01-15T00:48:06;19.58;;;12.32;;
3601;SDS011;1815;50.950;6.920;2024-01-15T00:50:31;23.80;;;13.43;;
3601;SDS011;1815;50.950;6.920;2024-01-15T00:52:57;20.13;;;12.90;;
3601;SDS011;1815;50.950;6.920;2024-01-15T00:55:23;18.00;;;10.10;;
3601;SDS011;1815;50.950;6.920;2024-01-15T00:57:48;17.03;;;11.23;;
3601;SDS011;1815;50.950;6.920;2024-01-15T01:00:14;20.60;;;11.97;;
3601;SDS011;1815;50.950;6.920;2024-01-15T01:02:40;24.73;;;14.03;;
3601;SDS011;1815;50.950;6.920;2024-01-15T01:05:06;19.98;;;12.63;;
3601;SDS011;1815;50.950;6.920;2024-01-15T01:07:32;19.65;;;11.20;;
3601;SDS011;1815;50.950;6.920;2024-01-15T01:09:58;20.90;;;11.40;;
3601;SDS011;1815;50.950;6.920;2024-01-15T01:12:23;18.97;;;11.60;;
3601;SDS011;1815;50.950;6.920;2024-01-15T01:14:49;23.03;;;12.97;;
3601;SDS011;1815;50.950;6.920;2024-01-15T01:17:15;23.87;;;13.43;;
3601;SDS011;1815;50.950;6.920;2024-01-15T01:19:40;17.83;;;11.90;;
3601;SDS011;1815;50.950;6.920;2024-01-15T01:22:06;21.10;;;12.13;;
3601;SDS011;1815;50.950;6.920;2024-01-15T01:24:32;20.97;;;11.77;;
3601;SDS011;1815;50.950;6.920;2024-01-15T01:26:58;22.83;;;12.48;;
3601;SDS011;1815;50.950;6.920;2024-01-15T01:29:24;17.90;;;11.30;;
3601;SDS011;1815;50.950;6.920;2024-01-15T01:31:49;16.80;;;10.80;;
3601;SDS011;1815;50.950;6.920;2024-01-15T01:34:15;21.80;;;11.53;;
3601;SDS011;1815;50.950;6.920;2024-01-15T01:36:42;16.63;;;9.50;;
3601;SDS011;1815;50.950;6.920;2024-01-15T01:39:08;24.00;;;12.90;;
3601;SDS011;1815;50.950;6.920;2024-01-15T01:41:34;18.63;;;10.15;;
3601;SDS011;1815;50.950;6.920;2024-01-15T01:44:00;15.47;;;10.30;;
3601;SDS011;1815;50.950;6.920;2024-01-15T01:46:26;19.83;;;11.87;;
3601;SDS011;1815;50.950;6.920;2024-01-15T01:48:53;16.63;;;11.68;;
3601;SDS011;1815;50.950;6.920;2024-01-15T01:51:20;20.77;;;12.02;;
3601;SDS011;1815;50.950;6.920;2024-01-15T01:53:48;17.45;;;11.30;;
3601;SDS011;1815;50.950;6.920;2024-01-15T01:56:15;17.45;;;11.20;;
3601;SDS011;1815;50.950;6.920;2024-01-15T01:58:41;20.92;;;12.48;;
3601;SDS011;1815;50.950;6.920;2024-01-15T02:01:08;22.70;;;12.68;;
3601;SDS011;1815;50.950;6.920;2024-01-15T02:03:34;18.30;;;11.00;;
3601;SDS011;1815;50.950;6.920;2024-01-15T02:06:00;25.05;;;13.55;;
3601;SDS011;1815;50.950;6.920;2024-01-15T02:08:26;21.33;;;11.40;;
3601;SDS011;1815;50.950;6.920;2024-01-15T02:10:52;21.20;;;12.03;;
3601;SDS011;1815;50.950;6.920;2024-01-15T02:13:18;24.20;;;13.63;;
3601;SDS011;1815;50.950;6.920;2024-01-15T02:15:45;21.05;;;12.90;;
3601;SDS011;1815;50.950;6.920;2024-01-15T02:18:10;18.80;;;11.83;;
3601;SDS011;1815;50.950;6.920;2024-01-15T02:20:36;23.83;;;12.83;;
3601;SDS011;1815;50.950;6.920;2024-01-15T02:25:35;19.40;;;13.25;;
3601;SDS011;1815;50.950;6.920;2024-01-15T02:28:01;20.17;;;12.75;;
3601;SDS011;1815;50.950;6.920;2024-01-15T02:30:28;20.27;;;13.10;;
3601;SDS011;1815;50.950;6.920;2024-01-15T02:32:55;20.50;;;12.07;;
3601;SDS011;1815;50.950;6.920;2024-01-15T02:35:20;23.00;;;12.57;;
3601;SDS011;1815;50.950;6.920;2024-01-15T02:37:46;18.17;;;12.03;;
3601;SDS011;1815;50.950;6.920;2024-01-15T02:40:12;17.23;;;11.20;;
3601;SDS011;1815;50.950;6.920;2024-01-15T02:42:37;25.00;;;13.60;;
3601;SDS011;1815;50.950;6.920;2024-01-15T02:45:03;21.87;;;11.90;;
3601;SDS011;1815;50.950;6.920;2024-01-15T02:47:30;19.92;;;12.60;;
3601;SDS011;1815;50.950;6.920;2024-01-15T02:49:55;19.80;;;12.27;;
3601;SDS011;1815;50.950;6.920;2024-01-15T02:52:21;21.37;;;12.70;;
3601;SDS011;1815;50.950;6.920;2024-01-15T02:54:47;20.90;;;12.30;;
3601;SDS011;1815;50.950;6.920;2024-01-15T02:57:12;18.93;;;11.33;;
3601;SDS011;1815;50.950;6.920;2024-01-15T02:59:39;23.35;;;11.55;;
3601;SDS011;1815;50.950;6.920;2024-01-15T03:02:04;19.37;;;13.10;;
3601;SDS011;1815;50.950;6.920;2024-01-15T03:04:30;22.83;;;12.83;;
3601;SDS011;1815;50.950;6.920;2024-01-15T03:06:56;16.80;;;10.40;;
3601;SDS011;1815;50.950;6.920;2024-01-15T03:09:21;19.10;;;10.60;;
3601;SDS011;1815;50.950;6.920;2024-01-15T03:11:47;19.80;;;12.00;;
3601;SDS011;1815;50.950;6.920;2024-01-15T03:14:13;21.30;;;12.15;;
3601;SDS011;1815;50.950;6.920;2024-01-15T03:16:39;17.25;;;11.13;;
3601;SDS011;1815;50.950;6.920;2024-01-15T03:19:05;20.53;;;12.53;;
3601;SDS011;1815;50.950;6.920;2024-01-15T03:21:31;20.93;;;13.77;;
3601;SDS011;1815;50.950;6.920;2024-01-15T03:23:57;17.53;;;10.67;;
3601;SDS011;1815;50.950;6.920;2024-01-15T03:26:22;21.67;;;12.13;;
3601;SDS011;1815;50.950;6.920;2024-01-15T03:28:48;20.73;;;12.97;;
3601;SDS011;1815;50.950;6.920;2024-01-15T03:31:14;20.40;;;11.07;;
3601;SDS011;1815;50.950;6.920;2024-01-15T03:33:39;20.33;;;10.80;;
3601;SDS011;1815;50.950;6.920;2024-01-15T03:36:05;16.87;;;12.07;;
3601;SDS011;1815;50.950;6.920;2024-01-15T03:38:31;16.25;;;11.73;;
3601;SDS011;1815;50.950;6.920;2024-01-15T03:40:57;20.00;;;13.65;;
3601;SDS011;1815;50.950;6.920;2024-01-15T03:43:23;18.17;;;12.10;;
3601;SDS011;1815;50.950;6.920;2024-01-15T03:45:48;16.53;;;11.60;;
3601;SDS011;1815;50.950;6.920;2024-01-15T03:48:14;21.80;;;11.60;;
3601;SDS011;1815;50.950;6.920;2024-01-15T03:50:40;19.77;;;12.43;;
3601;SDS011;1815;50.950;6.920;2024-01-15T03:53:05;19.50;;;12.57;;
3601;SDS011;1815;50.950;6.920;2024-01-15T03:55:32;18.00;;;11.73;;
3601;SDS011;1815;50.950;6.920;2024-01-15T03:57:57;18.23;;;12.45;;
3601;SDS011;1815;50.950;6.920;2024-01-15T04:00:23;18.97;;;12.77;;
3601;SDS011;1815;50.950;6.920;2024-01-15T04:02:49;21.17;;;12.40;;
3601;SDS011;1815;50.950;6.920;2024-01-15T04:05:14;19.63;;;11.90;;
3601;SDS011;1815;50.950;6.920;2024-01-15T04:07:40;20.20;;;12.80;;
3601;SDS011;1815;50.950;6.920;2024-01-15T04:10:06;23.87;;;13.57;;
3601;SDS011;1815;50.950;6.920;2024-01-15T04:16:32;15.35;;;10.32;;
3601;SDS011;1815;50.950;6.920;2024-01-15T04:18:58;17.50;;;10.30;;
3601;SDS011;1815;50.950;6.920;2024-01-15T04:21:23;16.63;;;11.40;;
3601;SDS011;1815;50.950;6.920;2024-01-15T04:23:49;16.83;;;11.80;;
3601;SDS011;1815;50.950;6.920;2024-01-15T04:26:15;21.80;;;11.50;;
3601;SDS011;1815;50.950;6.920;2024-01-15T04:28:40;15.30;;;11.00;;
3601;SDS011;1815;50.950;6.920;2024-01-15T04:31:06;16.40;;;10.50;;
3601;SDS011;1815;50.950;6.920;2024-01-15T04:33:32;20.60;;;11.50;;
3601;SDS011;1815;50.950;6.920;2024-01-15T04:36:01;17.67;;;11.50;;
3601;SDS011;1815;50.950;6.920;2024-01-15T04:38:27;17.13;;;9.75;;
3601;SDS011;1815;50.950;6.920;2024-01-15T04:40:53;18.03;;;11.73;;
3601;SDS011;1815;50.950;6.920;2024-01-15T04:43:19;16.17;;;9.90;;
3601;SDS011;1815;50.950;6.920;2024-01-15T04:45:44;20.50;;;11.77;;
3601;SDS011;1815;50.950;6.920;2024-01-15T04:48:10;13.87;;;9.50;;
3601;SDS011;1815;50.950;6.920;2024-01-15T04:50:36;13.50;;;9.30;;
3601;SDS011;1815;50.950;6.920;2024-01-15T04:53:03;15.30;;;9.35;;
3601;SDS011;1815;50.950;6.920;2024-01-15T04:55:28;13.53;;;8.60;;
3601;SDS011;1815;50.950;6.920;2024-01-15T04:57:54;18.03;;;9.77;;
3601;SDS011;1815;50.950;6.920;2024-01-15T05:00:20;14.90;;;8.53;;
3601;SDS011;1815;50.950;6.920;2024-01-15T05:02:45;14.90;;;9.20;;
3601;SDS011;1815;50.950;6.920;2024-01-15T05:05:11;15.30;;;8.23;;
3601;SDS011;1815;50.950;6.920;2024-01-15T05:07:37;12.70;;;9.13;;
3601;SDS011;1815;50.950;6.920;2024-01-15T05:10:02;13.90;;;9.17;;
3601;SDS011;1815;50.950;6.920;2024-01-15T05:12:29;12.55;;;7.70;;
3601;SDS011;1815;50.950;6.920;2024-01-15T05:14:54;13.47;;;9.20;;
3601;SDS011;1815;50.950;6.920;2024-01-15T05:17:20;13.80;;;7.87;;
3601;SDS011;1815;50.950;6.920;2024-01-15T05:19:46;13.83;;;8.13;;
3601;SDS011;1815;50.950;6.920;2024-01-15T05:22:11;15.40;;;9.83;;
3601;SDS011;1815;50.950;6.920;2024-01-15T05:24:37;10.90;;;7.20;;
3601;SDS011;1815;50.950;6.920;2024-01-15T05:27:03;15.87;;;8.30;;
3601;SDS011;1815;50.950;6.920;2024-01-15T05:29:29;12.48;;;8.73;;
3601;SDS011;1815;50.950;6.920;2024-01-15T05:31:55;11.20;;;7.60;;
3601;SDS011;1815;50.950;6.920;2024-01-15T05:34:20;12.60;;;8.47;;
3601;SDS011;1815;50.950;6.920;2024-01-15T05:36:46;10.83;;;8.03;;
3601;SDS011;1815;50.950;6.920;2024-01-15T05:39:13;11.40;;;8.23;;
3601;SDS011;1815;50.950;6.920;2024-01-15T05:41:38;11.50;;;7.57;;
3601;SDS011;1815;50.950;6.920;2024-01-15T05:44:04;11.63;;;7.67;;
3601;SDS011;1815;50.950;6.920;2024-01-15T05:46:30;8.83;;;7.07;;
3601;SDS011;1815;50.950;6.920;2024-01-15T05:48:55;12.10;;;7.23;;
3601;SDS011;1815;50.950;6.920;2024-01-15T05:51:21;11.00;;;6.97;;
3601;SDS011;1815;50.950;6.920;2024-01-15T05:53:47;14.90;;;9.17;;
3601;SDS011;1815;50.950;6.920;2024-01-15T05:56:12;10.00;;;6.60;;
3601;SDS011;1815;50.950;6.920;2024-01-15T05:58:38;11.97;;;7.13;;
3601;SDS011;1815;50.950;6.920;2024-01-15T06:01:04;11.40;;;6.93;;
3601;SDS011;1815;50.950;6.920;2024-01-15T06:03:30;13.13;;;7.40;;
3601;SDS011;1815;50.950;6.920;2024-01-15T06:05:55;8.93;;;6.37;;
3601;SDS011;1815;50.950;6.920;2024-01-15T06:08:21;7.33;;;5.93;;
3601;SDS011;1815;50.950;6.920;2024-01-15T06:10:47;9.80;;;6.23;;
3601;SDS011;1815;50.950;6.920;2024-01-15T06:13:12;12.70;;;8.47;;
3601;SDS011;1815;50.950;6.920;2024-01-15T06:15:38;14.48;;;6.95;;
3601;SDS011;1815;50.950;6.920;2024-01-15T06:18:04;12.23;;;7.00;;
3601;SDS011;1815;50.950;6.920;2024-01-15T06:20:30;10.20;;;7.27;;
3601;SDS011;1815;50.950;6.920;2024-01-15T06:22:56;11.37;;;6.03;;
3601;SDS011;1815;50.950;6.920;2024-01-15T06:25:21;15.93;;;8.20;;
3601;SDS011;1815;50.950;6.920;2024-01-15T06:27:47;12.10;;;8.13;;
3601;SDS011;1815;50.950;6.920;2024-01-15T06:30:13;10.73;;;8.17;;
3601;SDS011;1815;50.950;6.920;2024-01-15T06:32:39;8.95;;;6.75;;
3601;SDS011;1815;50.950;6.920;2024-01-15T06:35:04;10.47;;;7.47;;
3601;SDS011;1815;50.950;6.920;2024-01-15T06:37:30;10.65;;;7.57;;
3601;SDS011;1815;50.950;6.920;2024-01-15T06:39:57;13.85;;;7.60;;
3601;SDS011;1815;50.950;6.920;2024-01-15T06:42:23;12.40;;;7.80;;
3601;SDS011;1815;50.950;6.920;2024-01-15T06:44:49;11.45;;;8.35;;
3601;SDS011;1815;50.950;6.920;2024-01-15T06:47:15;10.43;;;7.90;;
3601;SDS011;1815;50.950;6.920;2024-01-15T06:49:42;12.52;;;9.63;;
3601;SDS011;1815;50.950;6.920;2024-01-15T06:52:08;12.60;;;8.35;;
3601;SDS011;1815;50.950;6.920;2024-01-15T06:54:34;10.60;;;7.80;;
3601;SDS011;1815;50.950;6.920;2024-01-15T06:57:09;10.50;;;8.33;;
3601;SDS011;1815;50.950;6.920;2024-01-15T06:59:34;9.75;;;6.28;;
3601;SDS011;1815;50.950;6.920;2024-01-15T07:02:03;9.40;;;7.40;;
3601;SDS011;1815;50.950;6.920;2024-01-15T07:04:29;11.63;;;7.27;;
3601;SDS011;1815;50.950;6.920;2024-01-15T07:06:54;9.23;;;7.77;;
3601;SDS011;1815;50.950;6.920;2024-01-15T07:09:20;10.63;;;7.07;;
3601;SDS011;1815;50.950;6.920;2024-01-15T07:11:46;12.93;;;8.83;;
3601;SDS011;1815;50.950;6.920;2024-01-15T07:14:12;12.40;;;8.37;;
3601;SDS011;1815;50.950;6.920;2024-01-15T07:16:38;12.88;;;8.90;;
3601;SDS011;1815;50.950;6.920;2024-01-15T07:19:04;9.07;;;6.80;;
3601;SDS011;1815;50.950;6.920;2024-01-15T07:21:29;11.07;;;7.13;;
3601;SDS011;1815;50.950;6.920;2024-01-15T07:23:55;9.03;;;6.80;;
3601;SDS011;1815;50.950;6.920;2024-01-15T07:26:21;10.43;;;6.70;;
3601;SDS011;1815;50.950;6.920;2024-01-15T07:28:47;10.70;;;7.70;;
3601;SDS011;1815;50.950;6.920;2024-01-15T07:31:12;10.50;;;8.23;;
3601;SDS011;1815;50.950;6.920;2024-01-15T07:33:41;11.73;;;7.90;;
3601;SDS011;1815;50.950;6.920;2024-01-15T07:36:07;14.27;;;7.47;;
3601;SDS011;1815;50.950;6.920;2024-01-15T07:38:33;10.40;;;7.93;;
3601;SDS011;1815;50.950;6.920;2024-01-15T07:40:58;10.63;;;8.53;;
3601;SDS011;1815;50.950;6.920;2024-01-15T07:43:24;14.60;;;8.67;;
3601;SDS011;1815;50.950;6.920;2024-01-15T07:45:50;10.63;;;7.67;;
3601;SDS011;1815;50.950;6.920;2024-01-15T07:48:16;11.80;;;7.30;;
3601;SDS011;1815;50.950;6.920;2024-01-15T07:50:41;8.80;;;7.00;;
3601;SDS011;1815;50.950;6.920;2024-01-15T07:53:07;13.70;;;7.73;;
3601;SDS011;1815;50.950;6.920;2024-01-15T07:55:33;11.63;;;8.03;;
3601;SDS011;1815;50.950;6.920;2024-01-15T07:57:58;13.87;;;9.10;;
3601;SDS011;1815;50.950;6.920;2024-01-15T08:00:24;11.47;;;7.80;;
3601;SDS011;1815;50.950;6.920;2024-01-15T08:02:51;10.98;;;9.77;;
3601;SDS011;1815;50.950;6.920;2024-01-15T08:05:18;16.83;;;10.32;;
3601;SDS011;1815;50.950;6.920;2024-01-15T08:07:44;16.05;;;10.02;;
3601;SDS011;1815;50.950;6.920;2024-01-15T08:10:10;14.53;;;9.87;;
3601;SDS011;1815;50.950;6.920;2024-01-15T08:12:35;16.07;;;9.30;;
3601;SDS011;1815;50.950;6.920;2024-01-15T08:15:01;15.60;;;9.80;;
3601;SDS011;1815;50.950;6.920;2024-01-15T08:17:26;11.70;;;8.50;;
3601;SDS011;1815;50.950;6.920;2024-01-15T08:19:54;13.35;;;10.82;;
3601;SDS011;1815;50.950;6.920;2024-01-15T08:22:20;13.35;;;11.20;;
3601;SDS011;1815;50.950;6.920;2024-01-15T08:24:45;16.10;;;11.47;;
3601;SDS011;1815;50.950;6.920;2024-01-15T08:27:11;16.90;;;10.27;;
3601;SDS011;1815;50.950;6.920;2024-01-15T08:29:37;14.10;;;10.07;;
3601;SDS011;1815;50.950;6.920;2024-01-15T08:32:02;13.10;;;10.10;;
3601;SDS011;1815;50.950;6.920;2024-01-15T08:34:28;15.90;;;10.03;;
3601;SDS011;1815;50.950;6.920;2024-01-15T08:36:54;15.97;;;11.33;;
3601;SDS011;1815;50.950;6.920;2024-01-15T08:39:20;15.50;;;10.83;;
3601;SDS011;1815;50.950;6.920;2024-01-15T08:41:45;17.40;;;11.40;;
3601;SDS011;1815;50.950;6.920;2024-01-15T08:44:14;14.23;;;10.77;;
3601;SDS011;1815;50.950;6.920;2024-01-15T08:46:39;12.67;;;9.37;;
3601;SDS011;1815;50.950;6.920;2024-01-15T08:49:05;16.00;;;9.97;;
3601;SDS011;1815;50.950;6.920;2024-01-15T08:51:31;15.27;;;11.50;;
3601;SDS011;1815;50.950;6.920;2024-01-15T08:53:57;14.57;;;9.23;;
3601;SDS011;1815;50.950;6.920;2024-01-15T08:56:23;14.65;;;10.40;;
3601;SDS011;1815;50.950;6.920;2024-01-15T08:58:48;17.43;;;11.20;;
3601;SDS011;1815;50.950;6.920;2024-01-15T09:01:14;13.57;;;9.50;;
3601;SDS011;1815;50.950;6.920;2024-01-15T09:03:40;16.37;;;9.10;;
3601;SDS011;1815;50.950;6.920;2024-01-15T09:06:08;12.65;;;9.68;;
3601;SDS011;1815;50.950;6.920;2024-01-15T09:08:35;16.05;;;8.85;;
3601;SDS011;1815;50.950;6.920;2024-01-15T09:11:01;12.02;;;8.98;;
3601;SDS011;1815;50.950;6.920;2024-01-15T09:13:28;9.70;;;8.57;;
3601;SDS011;1815;50.950;6.920;2024-01-15T09:15:54;14.67;;;8.80;;
3601;SDS011;1815;50.950;6.920;2024-01-15T09:18:19;11.53;;;9.47;;
3601;SDS011;1815;50.950;6.920;2024-01-15T09:20:45;13.33;;;9.20;;
3601;SDS011;1815;50.950;6.920;2024-01-15T09:23:10;13.17;;;9.20;;
3601;SDS011;1815;50.950;6.920;2024-01-15T09:25:36;10.97;;;8.23;;
3601;SDS011;1815;50.950;6.920;2024-01-15T09:28:02;9.43;;;7.83;;
3601;SDS011;1815;50.950;6.920;2024-01-15T09:30:28;10.30;;;8.10;;
3601;SDS011;1815;50.950;6.920;2024-01-15T09:32:53;13.43;;;7.90;;
3601;SDS011;1815;50.950;6.920;2024-01-15T09:35:19;9.70;;;6.40;;
3601;SDS011;1815;50.950;6.920;2024-01-15T09:37:45;8.40;;;6.63;;
3601;SDS011;1815;50.950;6.920;2024-01-15T09:40:13;12.13;;;7.97;;
3601;SDS011;1815;50.950;6.920;2024-01-15T09:42:40;9.10;;;6.15;;
3601;SDS011;1815;50.950;6.920;2024-01-15T09:45:07;10.90;;;6.07;;
3601;SDS011;1815;50.950;6.920;2024-01-15T09:47:34;7.47;;;5.80;;
3601;SDS011;1815;50.950;6.920;2024-01-15T09:50:02;8.30;;;6.32;;
3601;SDS011;1815;50.950;6.920;2024-01-15T09:52:28;11.45;;;5.55;;
3601;SDS011;1815;50.950;6.920;2024-01-15T09:54:55;5.38;;;4.03;;
3601;SDS011;1815;50.950;6.920;2024-01-15T09:57:23;6.65;;;4.85;;
3601;SDS011;1815;50.950;6.920;2024-01-15T09:59:50;4.00;;;3.60;;
3601;SDS011;1815;50.950;6.920;2024-01-15T10:02:18;4.32;;;3.25;;
3601;SDS011;1815;50.950;6.920;2024-01-15T10:04:44;6.00;;;4.70;;
3601;SDS011;1815;50.950;6.920;2024-01-15T10:07:12;4.93;;;3.90;;
3601;SDS011;1815;50.950;6.920;2024-01-15T10:09:42;6.22;;;3.50;;
3601;SDS011;1815;50.950;6.920;2024-01-15T10:12:07;4.80;;;3.80;;
3601;SDS011;1815;50.950;6.920;2024-01-15T10:14:34;4.53;;;3.08;;
3601;SDS011;1815;50.950;6.920;2024-01-15T10:17:00;4.33;;;3.30;;
3601;SDS011;1815;50.950;6.920;2024-01-15T10:19:26;4.10;;;3.33;;
3601;SDS011;1815;50.950;6.920;2024-01-15T10:21:52;6.85;;;3.55;;
3601;SDS011;1815;50.950;6.920;2024-01-15T10:24:18;6.70;;;4.40;;
3601;SDS011;1815;50.950;6.920;2024-01-15T10:26:43;4.17;;;3.37;;
3601;SDS011;1815;50.950;6.920;2024-01-15T10:29:09;4.05;;;2.50;;
3601;SDS011;1815;50.950;6.920;2024-01-15T10:31:36;5.57;;;2.90;;
3601;SDS011;1815;50.950;6.920;2024-01-15T10:34:09;4.85;;;2.95;;
3601;SDS011;1815;50.950;6.920;2024-01-15T10:36:38;5.65;;;2.80;;
3601;SDS011;1815;50.950;6.920;2024-01-15T10:39:05;4.38;;;2.33;;
3601;SDS011;1815;50.950;6.920;2024-01-15T10:41:32;3.50;;;2.97;;
3601;SDS011;1815;50.950;6.920;2024-01-15T10:43:58;2.70;;;2.20;;
3601;SDS011;1815;50.950;6.920;2024-01-15T10:46:24;4.27;;;2.93;;
3601;SDS011;1815;50.950;6.920;2024-01-15T10:48:50;4.70;;;2.95;;
3601;SDS011;1815;50.950;6.920;2024-01-15T10:51:17;3.55;;;3.20;;
3601;SDS011;1815;50.950;6.920;2024-01-15T10:53:43;3.92;;;2.65;;
3601;SDS011;1815;50.950;6.920;2024-01-15T10:56:10;4.50;;;2.33;;
3601;SDS011;1815;50.950;6.920;2024-01-15T10:58:38;2.20;;;1.80;;
3601;SDS011;1815;50.950;6.920;2024-01-15T11:01:05;3.92;;;1.83;;
3601;SDS011;1815;50.950;6.920;2024-01-15T11:03:31;2.80;;;1.60;;
3601;SDS011;1815;50.950;6.920;2024-01-15T11:05:59;2.63;;;2.00;;
3601;SDS011;1815;50.950;6.920;2024-01-15T11:08:24;3.22;;;1.88;;
3601;SDS011;1815;50.950;6.920;2024-01-15T11:10:51;1.93;;;1.70;;
3601;SDS011;1815;50.950;6.920;2024-01-15T11:16:02;2.17;;;1.45;;
3601;SDS011;1815;50.950;6.920;2024-01-15T11:18:30;2.20;;;1.52;;
3601;SDS011;1815;50.950;6.920;2024-01-15T11:23:47;2.72;;;1.55;;
3601;SDS011;1815;50.950;6.920;2024-01-15T11:26:31;2.13;;;1.20;;
3601;SDS011;1815;50.950;6.920;2024-01-15T11:29:11;3.03;;;2.15;;
3601;SDS011;1815;50.950;6.920;2024-01-15T11:37:18;2.28;;;1.58;;
3601;SDS011;1815;50.950;6.920;2024-01-15T11:39:45;1.85;;;1.63;;
3601;SDS011;1815;50.950;6.920;2024-01-15T11:42:14;2.58;;;2.22;;
3601;SDS011;1815;50.950;6.920;2024-01-15T11:44:40;3.15;;;2.42;;
3601;SDS011;1815;50.950;6.920;2024-01-15T11:47:07;2.92;;;2.17;;
3601;SDS011;1815;50.950;6.920;2024-01-15T11:52:37;3.20;;;2.90;;
3601;SDS011;1815;50.950;6.920;2024-01-15T11:55:26;3.10;;;2.80;;
3601;SDS011;1815;50.950;6.920;2024-01-15T11:57:54;5.38;;;3.78;;
3601;SDS011;1815;50.950;6.920;2024-01-15T12:00:22;3.55;;;3.10;;
3601;SDS011;1815;50.950;6.920;2024-01-15T12:02:49;4.25;;;2.78;;
3601;SDS011;1815;50.950;6.920;2024-01-15T12:05:19;3.72;;;2.95;;
3601;SDS011;1815;50.950;6.920;2024-01-15T12:07:46;4.63;;;3.78;;
3601;SDS011;1815;50.950;6.920;2024-01-15T12:10:17;5.80;;;4.50;;
3601;SDS011;1815;50.950;6.920;2024-01-15T12:15:32;6.00;;;4.25;;
3601;SDS011;1815;50.950;6.920;2024-01-15T12:17:59;6.65;;;4.60;;
3601;SDS011;1815;50.950;6.920;2024-01-15T12:20:27;4.43;;;3.80;;
3601;SDS011;1815;50.950;6.920;2024-01-15T12:22:54;5.68;;;4.95;;
3601;SDS011;1815;50.950;6.920;2024-01-15T12:25:21;5.22;;;4.72;;
3601;SDS011;1815;50.950;6.920;2024-01-15T12:27:47;5.85;;;5.03;;
3601;SDS011;1815;50.950;6.920;2024-01-15T12:30:13;5.27;;;4.20;;
3601;SDS011;1815;50.950;6.920;2024-01-15T12:32:43;5.72;;;3.20;;
3601;SDS011;1815;50.950;6.920;2024-01-15T12:35:12;8.80;;;3.80;;
3601;SDS011;1815;50.950;6.920;2024-01-15T12:37:39;7.72;;;4.07;;
3601;SDS011;1815;50.950;6.920;2024-01-15T12:40:06;6.00;;;3.83;;
3601;SDS011;1815;50.950;6.920;2024-01-15T12:42:44;6.88;;;3.90;;
3601;SDS011;1815;50.950;6.920;2024-01-15T12:45:09;4.95;;;3.38;;
3601;SDS011;1815;50.950;6.920;2024-01-15T12:47:37;6.22;;;3.17;;
3601;SDS011;1815;50.950;6.920;2024-01-15T12:50:08;3.45;;;2.70;;
3601;SDS011;1815;50.950;6.920;2024-01-15T12:52:35;9.88;;;4.50;;
3601;SDS011;1815;50.950;6.920;2024-01-15T12:55:03;8.05;;;4.47;;
3601;SDS011;1815;50.950;6.920;2024-01-15T12:57:29;5.25;;;3.67;;
3601;SDS011;1815;50.950;6.920;2024-01-15T12:59:55;8.00;;;3.77;;
3601;SDS011;1815;50.950;6.920;2024-01-15T13:02:21;8.63;;;3.60;;
3601;SDS011;1815;50.950;6.920;2024-01-15T13:04:47;7.38;;;3.28;;
3601;SDS011;1815;50.950;6.920;2024-01-15T13:07:13;13.80;;;6.03;;
3601;SDS011;1815;50.950;6.920;2024-01-15T13:09:39;7.20;;;4.13;;
3601;SDS011;1815;50.950;6.920;2024-01-15T13:12:04;5.83;;;3.70;;
3601;SDS011;1815;50.950;6.920;2024-01-15T13:14:30;5.55;;;3.30;;
3601;SDS011;1815;50.950;6.920;2024-01-15T13:16:56;7.77;;;2.77;;
3601;SDS011;1815;50.950;6.920;2024-01-15T13:19:23;7.10;;;2.83;;
3601;SDS011;1815;50.950;6.920;2024-01-15T13:21:49;6.50;;;2.90;;
3601;SDS011;1815;50.950;6.920;2024-01-15T13:24:20;4.10;;;2.33;;
3601;SDS011;1815;50.950;6.920;2024-01-15T13:26:46;4.45;;;1.90;;
3601;SDS011;1815;50.950;6.920;2024-01-15T13:29:12;3.10;;;2.10;;
3601;SDS011;1815;50.950;6.920;2024-01-15T13:31:39;6.30;;;2.45;;
3601;SDS011;1815;50.950;6.920;2024-01-15T13:34:04;4.43;;;2.63;;
3601;SDS011;1815;50.950;6.920;2024-01-15T13:36:32;4.47;;;2.88;;
3601;SDS011;1815;50.950;6.920;2024-01-15T13:38:58;3.30;;;1.60;;
3601;SDS011;1815;50.950;6.920;2024-01-15T13:41:24;2.47;;;1.60;;
3601;SDS011;1815;50.950;6.920;2024-01-15T13:43:52;4.80;;;2.30;;
3601;SDS011;1815;50.950;6.920;2024-01-15T13:46:19;2.40;;;1.52;;
3601;SDS011;1815;50.950;6.920;2024-01-15T13:48:47;3.63;;;1.35;;
3601;SDS011;1815;50.950;6.920;2024-01-15T13:51:13;6.50;;;2.10;;
3601;SDS011;1815;50.950;6.920;2024-01-15T13:53:38;6.45;;;3.67;;
3601;SDS011;1815;50.950;6.920;2024-01-15T13:56:05;3.95;;;2.28;;
3601;SDS011;1815;50.950;6.920;2024-01-15T13:58:31;2.35;;;1.10;;
3601;SDS011;1815;50.950;6.920;2024-01-15T14:00:58;4.40;;;2.10;;
3601;SDS011;1815;50.950;6.920;2024-01-15T14:03:24;1.98;;;1.05;;
3601;SDS011;1815;50.950;6.920;2024-01-15T14:05:51;3.92;;;1.42;;
3601;SDS011;1815;50.950;6.920;2024-01-15T14:08:17;2.30;;;0.85;;
3601;SDS011;1815;50.950;6.920;2024-01-15T14:10:42;2.00;;;1.20;;
3601;SDS011;1815;50.950;6.920;2024-01-15T14:13:08;1.97;;;1.20;;
3601;SDS011;1815;50.950;6.920;2024-01-15T14:15:36;2.35;;;1.00;;
3601;SDS011;1815;50.950;6.920;2024-01-15T14:18:02;2.33;;;0.97;;
3601;SDS011;1815;50.950;6.920;2024-01-15T14:20:28;2.22;;;1.13;;
3601;SDS011;1815;50.950;6.920;2024-01-15T14:22:54;3.17;;;1.00;;
3601;SDS011;1815;50.950;6.920;2024-01-15T14:25:20;2.27;;;0.90;;
3601;SDS011;1815;50.950;6.920;2024-01-15T14:27:46;1.85;;;0.88;;
3601;SDS011;1815;50.950;6.920;2024-01-15T14:30:12;2.60;;;0.93;;
3601;SDS011;1815;50.950;6.920;2024-01-15T14:32:40;1.60;;;0.90;;
3601;SDS011;1815;50.950;6.920;2024-01-15T14:35:07;1.80;;;1.10;;
3601;SDS011;1815;50.950;6.920;2024-01-15T14:37:35;2.00;;;1.20;;
3601;SDS011;1815;50.950;6.920;2024-01-15T14:40:05;4.20;;;1.25;;
3601;SDS011;1815;50.950;6.920;2024-01-15T14:42:36;1.70;;;1.00;;
3601;SDS011;1815;50.950;6.920;2024-01-15T14:45:02;1.95;;;1.00;;
3601;SDS011;1815;50.950;6.920;2024-01-15T14:47:29;1.60;;;1.00;;
3601;SDS011;1815;50.950;6.920;2024-01-15T14:49:56;1.90;;;1.10;;
3601;SDS011;1815;50.950;6.920;2024-01-15T14:52:22;2.10;;;0.98;;
3601;SDS011;1815;50.950;6.920;2024-01-15T14:54:49;1.83;;;1.00;;
3601;SDS011;1815;50.950;6.920;2024-01-15T14:57:14;2.03;;;1.05;;
3601;SDS011;1815;50.950;6.920;2024-01-15T14:59:40;1.80;;;1.03;;
3601;SDS011;1815;50.950;6.920;2024-01-15T15:02:06;3.77;;;1.30;;
3601;SDS011;1815;50.950;6.920;2024-01-15T15:04:32;2.83;;;1.30;;
3601;SDS011;1815;50.950;6.920;2024-01-15T15:06:58;2.47;;;1.30;;
3601;SDS011;1815;50.950;6.920;2024-01-15T15:09:24;3.63;;;1.40;;
3601;SDS011;1815;50.950;6.920;2024-01-15T15:11:49;4.07;;;1.77;;
3601;SDS011;1815;50.950;6.920;2024-01-15T15:14:17;3.67;;;2.05;;
3601;SDS011;1815;50.950;6.920;2024-01-15T15:16:43;3.83;;;1.42;;
3601;SDS011;1815;50.950;6.920;2024-01-15T15:19:09;3.30;;;1.20;;
3601;SDS011;1815;50.950;6.920;2024-01-15T15:21:34;1.87;;;1.00;;